Time,TemperatureF,DewpointF,PressureIn,WindDirection,WindDirectionDegrees,WindSpeedMPH,WindSpeedGustMPH,Humidity,HourlyPrecipIn,Conditions,Clouds,dailyrainin,SolarRadiationWatts/m^2,SoftwareType,DateUTC
2013-01-11 00:02:00,27.0,16.0,-100.00,ESE,103,2.0,7.0,64,0.00,,,0.00,90.000000,,2013-01-11 00:02:00,
2013-01-11 00:12:00,27.0,16.0,-100.00,ESE,103,2.0,7.0,64,0.00,,,0.00,90.000000,,2013-01-11 00:12:00,
2013-01-11 00:23:00,27.0,16.0,-100.00,ESE,103,2.0,7.0,64,0.00,,,0.00,90.000000,,2013-01-11 00:23:00,
2013-01-11 00:32:00,27.0,16.0,-100.00,ESE,103,2.0,7.0,64,0.00,,,0.00,90.000000,,2013-01-11 00:32:00,
2013-01-11 00:40:00,22.0,18.0,-100.00,NW,311,3.0,9.0,83,0.00,,,-99.99,2.000000,,2013-01-11 00:40:00,
2013-01-11 01:02:00,22.0,18.0,-100.00,NW,311,3.0,9.0,83,0.00,,,-99.99,2.000000,,2013-01-11 01:02:00,
2013-01-11 01:12:00,22.0,18.0,-100.00,NW,311,3.0,9.0,83,0.00,,,-99.99,2.000000,,2013-01-11 01:12:00,
2013-01-11 01:22:00,22.0,18.0,-100.00,NW,311,3.0,9.0,83,0.00,,,-99.99,2.000000,,2013-01-11 01:22:00,
2013-01-11 01:33:00,22.0,18.0,-100.00,NW,311,3.0,9.0,83,0.00,,,-99.99,2.000000,,2013-01-11 01:33:00,
2013-01-11 01:40:00,26.0,16.0,-100.00,SE,146,3.0,7.0,66,0.00,,,0.00,0.000000,,2013-01-11 01:40:00,
2013-01-11 02:02:00,26.0,16.0,-100.00,SE,146,3.0,7.0,66,0.00,,,0.00,0.000000,,2013-01-11 02:02:00,
2013-01-11 02:12:00,26.0,16.0,-100.00,SE,146,3.0,7.0,66,0.00,,,0.00,0.000000,,2013-01-11 02:12:00,
2013-01-11 02:22:00,26.0,16.0,-100.00,SE,146,3.0,7.0,66,0.00,,,0.00,0.000000,,2013-01-11 02:22:00,
2013-01-11 02:32:00,26.0,16.0,-100.00,SE,146,3.0,7.0,66,0.00,,,0.00,0.000000,,2013-01-11 02:32:00,
2013-01-11 02:40:00,18.0,16.0,-100.00,ESE,118,1.0,5.0,91,0.00,,,0.00,0.000000,,2013-01-11 02:40:00,
2013-01-11 03:02:00,18.0,16.0,-100.00,ESE,118,1.0,5.0,91,0.00,,,0.00,0.000000,,2013-01-11 03:02:00,
2013-01-11 03:12:00,18.0,16.0,-100.00,ESE,118,1.0,5.0,91,0.00,,,0.00,0.000000,,2013-01-11 03:12:00,
2013-01-11 03:22:00,18.0,16.0,-100.00,ESE,118,1.0,5.0,91,0.00,,,0.00,0.000000,,2013-01-11 03:22:00,
2013-01-11 03:33:00,18.0,16.0,-100.00,ESE,118,1.0,5.0,91,0.00,,,0.00,0.000000,,2013-01-11 03:33:00,
2013-01-11 03:40:00,17.0,15.0,-100.00,West,268,2.0,5.0,93,0.00,,,0.00,0.000000,,2013-01-11 03:40:00,
2013-01-11 04:02:00,17.0,15.0,-100.00,West,268,2.0,5.0,93,0.00,,,0.00,0.000000,,2013-01-11 04:02:00,
2013-01-11 04:12:00,17.0,15.0,-100.00,West,268,2.0,5.0,93,0.00,,,0.00,0.000000,,2013-01-11 04:12:00,
2013-01-11 04:22:00,17.0,15.0,-100.00,West,268,2.0,5.0,93,0.00,,,0.00,0.000000,,2013-01-11 04:22:00,
2013-01-11 04:32:00,17.0,15.0,-100.00,West,268,2.0,5.0,93,0.00,,,0.00,0.000000,,2013-01-11 04:32:00,
2013-01-11 04:40:00,13.0,11.0,-100.00,NNW,342,1.0,3.0,90,0.00,,,0.00,0.000000,,2013-01-11 04:40:00,
2013-01-11 05:03:00,13.0,11.0,-100.00,NNW,342,1.0,3.0,90,0.00,,,0.00,0.000000,,2013-01-11 05:03:00,
2013-01-11 05:12:00,13.0,11.0,-100.00,NNW,342,1.0,3.0,90,0.00,,,0.00,0.000000,,2013-01-11 05:12:00,
2013-01-11 05:22:00,13.0,11.0,-100.00,NNW,342,1.0,3.0,90,0.00,,,0.00,0.000000,,2013-01-11 05:22:00,
2013-01-11 05:33:00,13.0,11.0,-100.00,NNW,342,1.0,3.0,90,0.00,,,0.00,0.000000,,2013-01-11 05:33:00,
2013-01-11 05:40:00,11.0,8.0,-100.00,NW,318,3.0,6.0,88,0.00,,,0.00,0.000000,,2013-01-11 05:40:00,
2013-01-11 06:02:00,11.0,8.0,-100.00,NW,318,3.0,6.0,88,0.00,,,0.00,0.000000,,2013-01-11 06:02:00,
2013-01-11 06:12:00,11.0,8.0,-100.00,NW,318,3.0,6.0,88,0.00,,,0.00,0.000000,,2013-01-11 06:12:00,
2013-01-11 06:22:00,11.0,8.0,-100.00,NW,318,3.0,6.0,88,0.00,,,0.00,0.000000,,2013-01-11 06:22:00,
2013-01-11 06:32:00,11.0,8.0,-100.00,NW,318,3.0,6.0,88,0.00,,,0.00,0.000000,,2013-01-11 06:32:00,
2013-01-11 06:40:00,8.0,5.0,-100.00,NNW,333,2.0,7.0,86,0.00,,,0.00,0.000000,,2013-01-11 06:40:00,
2013-01-11 07:02:00,8.0,5.0,-100.00,NNW,333,2.0,7.0,86,0.00,,,0.00,0.000000,,2013-01-11 07:02:00,
2013-01-11 07:12:00,8.0,5.0,-100.00,NNW,333,2.0,7.0,86,0.00,,,0.00,0.000000,,2013-01-11 07:12:00,
2013-01-11 07:22:00,8.0,5.0,-100.00,NNW,333,2.0,7.0,86,0.00,,,0.00,0.000000,,2013-01-11 07:22:00,
2013-01-11 07:32:00,8.0,5.0,-100.00,NNW,333,2.0,7.0,86,0.00,,,0.00,0.000000,,2013-01-11 07:32:00,
2013-01-11 07:40:00,6.0,3.0,-100.00,North,350,3.0,8.0,86,0.00,,,0.00,0.000000,,2013-01-11 07:40:00,
2013-01-11 08:02:00,6.0,3.0,-100.00,North,350,3.0,8.0,86,0.00,,,0.00,0.000000,,2013-01-11 08:02:00,
2013-01-11 08:12:00,6.0,3.0,-100.00,North,350,3.0,8.0,86,0.00,,,0.00,0.000000,,2013-01-11 08:12:00,
2013-01-11 08:22:00,6.0,3.0,-100.00,North,350,3.0,8.0,86,0.00,,,0.00,0.000000,,2013-01-11 08:22:00,
2013-01-11 08:32:00,6.0,3.0,-100.00,North,350,3.0,8.0,86,0.00,,,0.00,0.000000,,2013-01-11 08:32:00,
2013-01-11 08:40:00,5.0,2.0,-100.00,NNW,336,2.0,10.0,86,0.00,,,0.00,0.000000,,2013-01-11 08:40:00,
2013-01-11 09:02:00,5.0,2.0,-100.00,NNW,336,2.0,10.0,86,0.00,,,0.00,0.000000,,2013-01-11 09:02:00,
2013-01-11 09:12:00,5.0,2.0,-100.00,NNW,336,2.0,10.0,86,0.00,,,0.00,0.000000,,2013-01-11 09:12:00,
2013-01-11 09:22:00,5.0,2.0,-100.00,NNW,336,2.0,10.0,86,0.00,,,0.00,0.000000,,2013-01-11 09:22:00,
2013-01-11 09:32:00,5.0,2.0,-100.00,NNW,336,2.0,10.0,86,0.00,,,0.00,0.000000,,2013-01-11 09:32:00,
2013-01-11 09:40:00,5.0,2.0,-100.00,SE,144,0.0,4.0,85,0.00,,,0.00,0.000000,,2013-01-11 09:40:00,
2013-01-11 10:02:00,5.0,2.0,-100.00,SE,144,0.0,4.0,85,0.00,,,0.00,0.000000,,2013-01-11 10:02:00,
2013-01-11 10:12:00,5.0,2.0,-100.00,SE,144,0.0,4.0,85,0.00,,,0.00,0.000000,,2013-01-11 10:12:00,
2013-01-11 10:22:00,5.0,2.0,-100.00,SE,144,0.0,4.0,85,0.00,,,0.00,0.000000,,2013-01-11 10:22:00,
2013-01-11 10:32:00,5.0,2.0,-100.00,SE,144,0.0,4.0,85,0.00,,,0.00,0.000000,,2013-01-11 10:32:00,
2013-01-11 10:40:00,1.0,-3.0,-100.00,NW,315,2.0,5.0,83,0.00,,,0.00,0.000000,,2013-01-11 10:40:00,
2013-01-11 11:02:00,1.0,-3.0,-100.00,NW,315,2.0,5.0,83,0.00,,,0.00,0.000000,,2013-01-11 11:02:00,
2013-01-11 11:12:00,1.0,-3.0,-100.00,NW,315,2.0,5.0,83,0.00,,,0.00,0.000000,,2013-01-11 11:12:00,
2013-01-11 11:22:00,1.0,-3.0,-100.00,NW,315,2.0,5.0,83,0.00,,,0.00,0.000000,,2013-01-11 11:22:00,
2013-01-11 11:32:00,1.0,-3.0,-100.00,NW,315,2.0,5.0,83,0.00,,,0.00,0.000000,,2013-01-11 11:32:00,
2013-01-11 11:40:00,-1.0,-5.0,-100.00,NW,314,1.0,4.0,82,0.00,,,0.00,0.000000,,2013-01-11 11:40:00,
2013-01-11 12:02:00,-1.0,-5.0,-100.00,NW,314,1.0,4.0,82,0.00,,,0.00,0.000000,,2013-01-11 12:02:00,
2013-01-11 12:12:00,-1.0,-5.0,-100.00,NW,314,1.0,4.0,82,0.00,,,0.00,0.000000,,2013-01-11 12:12:00,
2013-01-11 12:22:00,-1.0,-5.0,-100.00,NW,314,1.0,4.0,82,0.00,,,0.00,0.000000,,2013-01-11 12:22:00,
2013-01-11 12:32:00,-1.0,-5.0,-100.00,NW,314,1.0,4.0,82,0.00,,,0.00,0.000000,,2013-01-11 12:32:00,
2013-01-11 12:40:00,-2.0,-6.0,-100.00,ESE,102,0.0,4.0,82,0.00,,,-99.99,0.000000,,2013-01-11 12:40:00,
2013-01-11 13:02:00,-2.0,-6.0,-100.00,ESE,102,0.0,4.0,82,0.00,,,-99.99,0.000000,,2013-01-11 13:02:00,
2013-01-11 13:12:00,-2.0,-6.0,-100.00,ESE,102,0.0,4.0,82,0.00,,,-99.99,0.000000,,2013-01-11 13:12:00,
2013-01-11 13:22:00,-2.0,-6.0,-100.00,ESE,102,0.0,4.0,82,0.00,,,-99.99,0.000000,,2013-01-11 13:22:00,
2013-01-11 13:32:00,-2.0,-6.0,-100.00,ESE,102,0.0,4.0,82,0.00,,,-99.99,0.000000,,2013-01-11 13:32:00,
2013-01-11 13:40:00,-3.0,-7.0,-100.00,NNW,336,1.0,5.0,81,0.00,,,-99.99,0.000000,,2013-01-11 13:40:00,
2013-01-11 14:03:00,-3.0,-7.0,-100.00,NNW,336,1.0,5.0,81,0.00,,,-99.99,0.000000,,2013-01-11 14:03:00,
2013-01-11 14:12:00,-3.0,-7.0,-100.00,NNW,336,1.0,5.0,81,0.00,,,-99.99,0.000000,,2013-01-11 14:12:00,
2013-01-11 14:22:00,-3.0,-7.0,-100.00,NNW,336,1.0,5.0,81,0.00,,,-99.99,0.000000,,2013-01-11 14:22:00,
2013-01-11 14:33:00,-3.0,-7.0,-100.00,NNW,336,1.0,5.0,81,0.00,,,-99.99,0.000000,,2013-01-11 14:33:00,
2013-01-11 14:40:00,-5.0,-9.0,-100.00,NW,310,1.0,6.0,81,0.00,,,0.00,0.000000,,2013-01-11 14:40:00,
2013-01-11 15:03:00,-5.0,-9.0,-100.00,NW,310,1.0,6.0,81,0.00,,,0.00,0.000000,,2013-01-11 15:03:00,
2013-01-11 15:12:00,-5.0,-9.0,-100.00,NW,310,1.0,6.0,81,0.00,,,0.00,0.000000,,2013-01-11 15:12:00,
2013-01-11 15:23:00,-5.0,-9.0,-100.00,NW,310,1.0,6.0,81,0.00,,,0.00,0.000000,,2013-01-11 15:23:00,
2013-01-11 15:32:00,-5.0,-9.0,-100.00,NW,310,1.0,6.0,81,0.00,,,0.00,0.000000,,2013-01-11 15:32:00,
2013-01-11 15:40:00,-5.0,-9.0,-100.00,NNW,330,1.0,3.0,81,0.00,,,0.00,2.000000,,2013-01-11 15:40:00,
2013-01-11 16:02:00,-5.0,-9.0,-100.00,NNW,330,1.0,3.0,81,0.00,,,0.00,2.000000,,2013-01-11 16:02:00,
2013-01-11 16:12:00,-5.0,-9.0,-100.00,NNW,330,1.0,3.0,81,0.00,,,0.00,2.000000,,2013-01-11 16:12:00,
2013-01-11 16:22:00,-5.0,-9.0,-100.00,NNW,330,1.0,3.0,81,0.00,,,0.00,2.000000,,2013-01-11 16:22:00,
2013-01-11 16:32:00,-5.0,-9.0,-100.00,NNW,330,1.0,3.0,81,0.00,,,0.00,2.000000,,2013-01-11 16:32:00,
2013-01-11 16:40:00,-3.0,-7.0,-100.00,WNW,299,1.0,5.0,81,0.00,,,0.00,17.000000,,2013-01-11 16:40:00,
2013-01-11 17:03:00,-3.0,-7.0,-100.00,WNW,299,1.0,5.0,81,0.00,,,0.00,17.000000,,2013-01-11 17:03:00,
2013-01-11 17:12:00,-3.0,-7.0,-100.00,WNW,299,1.0,5.0,81,0.00,,,0.00,17.000000,,2013-01-11 17:12:00,
2013-01-11 17:22:00,-3.0,-7.0,-100.00,WNW,299,1.0,5.0,81,0.00,,,0.00,17.000000,,2013-01-11 17:22:00,
2013-01-11 17:33:00,-3.0,-7.0,-100.00,WNW,299,1.0,5.0,81,0.00,,,0.00,17.000000,,2013-01-11 17:33:00,
2013-01-11 17:40:00,-1.0,-5.0,-100.00,SSE,157,2.0,5.0,81,0.00,,,0.00,22.000000,,2013-01-11 17:40:00,
2013-01-11 18:03:00,-1.0,-5.0,-100.00,SSE,157,2.0,5.0,81,0.00,,,0.00,22.000000,,2013-01-11 18:03:00,
2013-01-11 18:12:00,-1.0,-5.0,-100.00,SSE,157,2.0,5.0,81,0.00,,,0.00,22.000000,,2013-01-11 18:12:00,
2013-01-11 18:23:00,-1.0,-5.0,-100.00,SSE,157,2.0,5.0,81,0.00,,,0.00,22.000000,,2013-01-11 18:23:00,
2013-01-11 18:32:00,-1.0,-5.0,-100.00,SSE,157,2.0,5.0,81,0.00,,,0.00,22.000000,,2013-01-11 18:32:00,
2013-01-11 18:40:00,-3.0,-8.0,-100.00,NNE,20,1.0,5.0,78,0.00,,,0.00,23.000000,,2013-01-11 18:40:00,
2013-01-11 19:02:00,-3.0,-8.0,-100.00,NNE,20,1.0,5.0,78,0.00,,,0.00,23.000000,,2013-01-11 19:02:00,
2013-01-11 19:12:00,-3.0,-8.0,-100.00,NNE,20,1.0,5.0,78,0.00,,,0.00,23.000000,,2013-01-11 19:12:00,
2013-01-11 19:22:00,-3.0,-8.0,-100.00,NNE,20,1.0,5.0,78,0.00,,,0.00,23.000000,,2013-01-11 19:22:00,
2013-01-11 19:32:00,-3.0,-8.0,-100.00,NNE,20,1.0,5.0,78,0.00,,,0.00,23.000000,,2013-01-11 19:32:00,
2013-01-11 19:40:00,-2.0,-7.0,-100.00,North,350,1.0,3.0,79,0.00,,,0.00,33.000000,,2013-01-11 19:40:00,
2013-01-11 20:02:00,-2.0,-7.0,-100.00,North,350,1.0,3.0,79,0.00,,,0.00,33.000000,,2013-01-11 20:02:00,
2013-01-11 20:12:00,-2.0,-7.0,-100.00,North,350,1.0,3.0,79,0.00,,,0.00,33.000000,,2013-01-11 20:12:00,
2013-01-11 20:22:00,-2.0,-7.0,-100.00,North,350,1.0,3.0,79,0.00,,,0.00,33.000000,,2013-01-11 20:22:00,
2013-01-11 20:32:00,-2.0,-7.0,-100.00,North,350,1.0,3.0,79,0.00,,,0.00,33.000000,,2013-01-11 20:32:00,
2013-01-11 20:40:00,1.0,-4.0,-100.00,NNE,12,1.0,4.0,79,0.00,,,0.00,46.000000,,2013-01-11 20:40:00,
2013-01-11 21:03:00,1.0,-4.0,-100.00,NNE,12,1.0,4.0,79,0.00,,,0.00,46.000000,,2013-01-11 21:03:00,
2013-01-11 21:12:00,1.0,-4.0,-100.00,NNE,12,1.0,4.0,79,0.00,,,0.00,46.000000,,2013-01-11 21:12:00,
2013-01-11 21:22:00,1.0,-4.0,-100.00,NNE,12,1.0,4.0,79,0.00,,,0.00,46.000000,,2013-01-11 21:22:00,
2013-01-11 21:32:00,1.0,-4.0,-100.00,NNE,12,1.0,4.0,79,0.00,,,0.00,46.000000,,2013-01-11 21:32:00,
2013-01-11 21:40:00,1.0,-5.0,-100.00,ENE,61,0.0,3.0,74,0.00,,,0.00,48.000000,,2013-01-11 21:40:00,
2013-01-11 22:02:00,1.0,-5.0,-100.00,ENE,61,0.0,3.0,74,0.00,,,0.00,48.000000,,2013-01-11 22:02:00,
2013-01-11 22:12:00,1.0,-5.0,-100.00,ENE,61,0.0,3.0,74,0.00,,,0.00,48.000000,,2013-01-11 22:12:00,
2013-01-11 22:22:00,1.0,-5.0,-100.00,ENE,61,0.0,3.0,74,0.00,,,0.00,48.000000,,2013-01-11 22:22:00,
2013-01-11 22:32:00,1.0,-5.0,-100.00,ENE,61,0.0,3.0,74,0.00,,,0.00,48.000000,,2013-01-11 22:32:00,
2013-01-11 22:40:00,-1.0,-8.0,-100.00,North,8,0.0,2.0,72,0.00,,,0.00,48.000000,,2013-01-11 22:40:00,
2013-01-11 23:02:00,-1.0,-8.0,-100.00,North,8,0.0,2.0,72,0.00,,,0.00,48.000000,,2013-01-11 23:02:00,
2013-01-11 23:12:00,-1.0,-8.0,-100.00,North,8,0.0,2.0,72,0.00,,,0.00,48.000000,,2013-01-11 23:12:00,
2013-01-11 23:22:00,-1.0,-8.0,-100.00,North,8,0.0,2.0,72,0.00,,,0.00,48.000000,,2013-01-11 23:22:00,
2013-01-11 23:32:00,-1.0,-8.0,-100.00,North,8,0.0,2.0,72,0.00,,,0.00,48.000000,,2013-01-11 23:32:00,
2013-01-11 23:40:00,-4.0,-10.0,-100.00,ENE,64,0.0,4.0,76,0.00,,,0.00,14.000000,,2013-01-11 23:40:00,